Terminal Aerodrome Forecast
Issued by NWS

Home | Current Version | Previous Version | Text Only | Print | Product List | Glossary On
Versions: 1 2 3 4 5 6 7 8 9 10 11 12 13 14 15 16 17 18
654
FTUS46 KLOX 091134
TAFOXR
TAF
KOXR 091134Z 0912/1012 VRB03KT P6SM SKC
     FM091300 07012G20KT P6SM SKC
     FM091600 07020G30KT P6SM SKC
     FM092200 30006KT P6SM FEW010
     FM100300 VRB03KT P6SM SKC
     FM101000 04006KT P6SM SKC=

USA.gov is the U.S. government's official web portal to all federal, state and local government web resources and services.